createdAt,value
2022-11-11T00:02:01.760Z,0
2022-11-11T00:07:11.762Z,0
2022-11-11T00:12:27.754Z,0
2022-11-11T00:17:30.408Z,0
2022-11-11T00:22:38.957Z,0
2022-11-11T00:27:51.903Z,0
2022-11-11T00:33:00.400Z,0
2022-11-11T00:38:10.272Z,0
2022-11-11T00:43:19.313Z,0
2022-11-11T00:48:28.049Z,0
2022-11-11T00:53:36.973Z,0
2022-11-11T00:58:46.551Z,0
2022-11-11T01:03:55.796Z,0
2022-11-11T01:09:05.562Z,0
2022-11-11T01:14:13.987Z,0
2022-11-11T01:19:23.761Z,0
2022-11-11T01:24:32.945Z,0
2022-11-11T01:29:41.501Z,0
2022-11-11T01:34:49.950Z,0
2022-11-11T01:39:59.022Z,0
2022-11-11T01:45:14.756Z,0
2022-11-11T01:50:30.913Z,0
2022-11-11T01:55:48.579Z,0
2022-11-11T02:01:04.684Z,0
2022-11-11T02:06:22.146Z,0
2022-11-11T02:11:39.531Z,0
2022-11-11T02:16:58.576Z,0
2022-11-11T02:21:24.522Z,0
2022-11-11T02:26:19.087Z,0
2022-11-11T02:31:28.977Z,0
2022-11-11T02:36:37.437Z,0
2022-11-11T02:41:46.071Z,0
2022-11-11T02:46:54.386Z,0
2022-11-11T02:52:03.791Z,0
2022-11-11T02:57:13.739Z,0
2022-11-11T03:02:22.758Z,0
2022-11-11T03:07:31.129Z,0
2022-11-11T03:12:44.822Z,0
2022-11-11T03:17:59.473Z,0
2022-11-11T03:23:14.862Z,0
2022-11-11T03:28:31.742Z,0
2022-11-11T03:33:46.648Z,0
2022-11-11T03:39:01.511Z,0
2022-11-11T03:44:17.674Z,0
2022-11-11T03:49:33.850Z,0
2022-11-11T03:54:59.585Z,0
2022-11-11T03:59:24.492Z,0
2022-11-11T04:04:18.722Z,0
2022-11-11T04:09:28.480Z,0
2022-11-11T04:14:39.519Z,0
2022-11-11T04:20:35.158Z,0
2022-11-11T04:25:02.241Z,0
2022-11-11T04:30:10.084Z,0
2022-11-11T04:35:19.190Z,0
2022-11-11T04:40:28.959Z,0
2022-11-11T04:45:38.089Z,0
2022-11-11T04:50:47.239Z,0
2022-11-11T04:55:56.944Z,0
2022-11-11T05:01:05.623Z,0
2022-11-11T05:06:18.913Z,0
2022-11-11T05:11:36.682Z,0
2022-11-11T05:16:52.840Z,0
2022-11-11T05:22:10.280Z,0
2022-11-11T05:27:26.515Z,0
2022-11-11T05:32:43.400Z,0
2022-11-11T05:38:00.040Z,0
2022-11-11T05:43:16.200Z,0
2022-11-11T05:48:33.635Z,0
2022-11-11T05:52:59.313Z,0
2022-11-11T05:57:50.896Z,0
2022-11-11T06:02:59.346Z,0
2022-11-11T06:08:07.837Z,0
2022-11-11T06:13:16.318Z,0
2022-11-11T06:18:31.606Z,1
2022-11-11T06:23:35.202Z,2
2022-11-11T06:28:44.993Z,5
2022-11-11T06:33:53.536Z,8
2022-11-11T06:39:01.298Z,13
2022-11-11T06:44:11.024Z,20
2022-11-11T06:49:20.947Z,34
2022-11-11T06:54:29.916Z,53
2022-11-11T06:59:42.459Z,80
2022-11-11T07:04:58.649Z,113
2022-11-11T07:10:14.143Z,149
2022-11-11T07:15:29.051Z,188
2022-11-11T07:20:45.241Z,229
2022-11-11T07:26:00.701Z,268
2022-11-11T07:31:15.615Z,312
2022-11-11T07:36:31.098Z,354
2022-11-11T07:41:46.623Z,394
2022-11-11T07:47:01.500Z,435
2022-11-11T07:51:27.019Z,475
2022-11-11T07:56:20.647Z,512
2022-11-11T08:01:29.351Z,554
2022-11-11T08:06:37.843Z,594
2022-11-11T08:11:46.075Z,633
2022-11-11T08:16:55.845Z,679
2022-11-11T08:22:05.589Z,724
2022-11-11T08:27:13.439Z,782
2022-11-11T08:32:22.566Z,872
2022-11-11T08:37:37.667Z,938
2022-11-11T08:42:55.080Z,970
2022-11-11T08:48:11.420Z,1020
2022-11-11T08:53:28.738Z,1050
2022-11-11T08:58:46.290Z,1031
2022-11-11T09:04:22.847Z,1131
2022-11-11T09:09:19.243Z,1129
2022-11-11T09:14:36.363Z,1077
2022-11-11T09:19:03.836Z,1083
2022-11-11T09:23:54.403Z,996
2022-11-11T09:29:02.913Z,944
2022-11-11T09:34:12.645Z,915
2022-11-11T09:39:21.753Z,933
2022-11-11T09:44:30.891Z,888
2022-11-11T09:49:39.357Z,929
2022-11-11T09:54:47.838Z,1119
2022-11-11T09:59:57.597Z,1061
2022-11-11T10:05:06.078Z,1077
2022-11-11T10:10:15.202Z,961
2022-11-11T10:15:24.327Z,941
2022-11-11T10:20:34.080Z,914
2022-11-11T10:25:43.233Z,865
2022-11-11T10:30:52.344Z,780
2022-11-11T10:36:00.816Z,843
2022-11-11T10:41:10.560Z,868
2022-11-11T10:46:19.678Z,917
2022-11-11T10:51:29.476Z,951
2022-11-11T10:56:41.010Z,857
2022-11-11T11:01:58.441Z,866
2022-11-11T11:07:15.945Z,907
2022-11-11T11:12:33.805Z,884
2022-11-11T11:17:50.603Z,886
2022-11-11T11:23:08.728Z,946
2022-11-11T11:28:26.519Z,979
2022-11-11T11:33:43.622Z,1007
2022-11-11T11:39:00.997Z,999
2022-11-11T11:44:17.474Z,992
2022-11-11T11:49:35.001Z,958
2022-11-11T11:54:52.719Z,895
2022-11-11T12:00:08.997Z,836
2022-11-11T12:04:39.596Z,791
2022-11-11T12:09:02.601Z,753
2022-11-11T12:14:19.882Z,695
2022-11-11T12:19:37.275Z,659
2022-11-11T12:24:54.276Z,710
2022-11-11T12:37:25.284Z,761
2022-11-11T12:39:14.862Z,761
2022-11-11T12:44:25.127Z,724
2022-11-11T12:51:19.396Z,708
2022-11-11T12:53:49.399Z,708
2022-11-11T12:56:35.716Z,640
2022-11-11T13:03:32.517Z,605
2022-11-11T13:09:49.599Z,578
2022-11-11T13:16:24.508Z,526
2022-11-11T13:18:24.475Z,526
2022-11-11T13:23:01.141Z,511
2022-11-11T13:29:57.188Z,499
2022-11-11T13:35:14.460Z,480
2022-11-11T13:40:29.959Z,453
2022-11-11T13:45:48.203Z,436
2022-11-11T13:51:05.004Z,420
2022-11-11T14:02:07.278Z,372
2022-11-11T14:02:29.173Z,372
2022-11-11T14:12:11.615Z,317
2022-11-11T14:13:01.565Z,317
2022-11-11T14:18:03.502Z,293
2022-11-11T14:23:03.840Z,272
2022-11-11T14:26:21.261Z,272
2022-11-11T14:30:24.162Z,250
2022-11-11T14:32:24.134Z,250
2022-11-11T14:36:06.034Z,233
2022-11-11T14:37:50.141Z,233
2022-11-11T14:41:22.364Z,222
2022-11-11T14:43:02.362Z,222
2022-11-11T14:47:30.276Z,215
2022-11-11T14:52:47.233Z,211
2022-11-11T15:05:01.633Z,176
2022-11-11T15:05:51.634Z,176
2022-11-11T15:15:35.058Z,150
2022-11-11T15:16:25.086Z,150
2022-11-11T15:26:06.757Z,104
2022-11-11T15:26:56.758Z,104
2022-11-11T15:36:39.566Z,58
2022-11-11T15:37:29.578Z,58
2022-11-11T15:52:31.392Z,17
2022-11-11T15:53:21.483Z,17
2022-11-11T15:57:49.061Z,13
2022-11-11T15:58:39.117Z,13
2022-11-11T16:03:06.287Z,8
2022-11-11T16:03:56.280Z,8
2022-11-11T16:08:24.105Z,3
2022-11-11T16:09:13.724Z,3
2022-11-11T16:14:18.689Z,1
2022-11-11T16:14:38.560Z,1
2022-11-11T16:19:36.482Z,0
2022-11-11T16:20:57.935Z,0
2022-11-11T16:25:43.210Z,0
2022-11-11T16:31:46.725Z,0
2022-11-11T16:40:06.058Z,0
2022-11-11T16:45:44.719Z,0
2022-11-11T16:55:57.574Z,0
2022-11-11T17:01:14.163Z,0
2022-11-11T17:06:29.809Z,0
2022-11-11T17:11:46.452Z,0
2022-11-11T17:12:36.443Z,0
2022-11-11T17:17:03.247Z,0
2022-11-11T17:17:53.258Z,0
2022-11-11T17:22:20.199Z,0
2022-11-11T17:28:15.523Z,0
2022-11-11T17:28:43.055Z,0
2022-11-11T17:33:52.178Z,0
2022-11-11T18:25:26.942Z,0
2022-11-11T18:26:16.941Z,0
2022-11-11T18:35:59.266Z,0
2022-11-11T18:36:49.262Z,0
2022-11-11T18:46:31.581Z,0
2022-11-11T18:47:21.579Z,0
2022-11-11T18:52:17.420Z,0
2022-11-11T18:52:50.896Z,0
2022-11-11T18:57:59.841Z,0
2022-11-11T18:58:19.819Z,0
2022-11-11T19:03:15.355Z,0
2022-11-11T19:03:35.332Z,0
2022-11-11T19:08:30.240Z,0
2022-11-11T19:08:50.220Z,0
2022-11-11T19:13:45.790Z,0
2022-11-11T19:14:05.767Z,0
2022-11-11T19:19:00.645Z,0
2022-11-11T19:19:20.616Z,0
2022-11-11T19:24:16.805Z,0
2022-11-11T19:24:36.777Z,0
2022-11-11T19:29:32.328Z,0
2022-11-11T19:29:52.299Z,0
2022-11-11T19:34:47.203Z,0
2022-11-11T19:35:07.180Z,0
2022-11-11T19:40:02.766Z,0
2022-11-11T19:40:22.740Z,0
2022-11-11T19:45:18.246Z,0
2022-11-11T19:45:38.219Z,0
2022-11-11T19:50:33.118Z,0
2022-11-11T19:50:53.104Z,0
2022-11-11T19:55:48.643Z,0
2022-11-11T19:56:08.620Z,0
2022-11-11T20:01:05.435Z,0
2022-11-11T20:01:25.489Z,0
2022-11-11T20:06:22.255Z,0
2022-11-11T20:06:42.284Z,0
2022-11-11T20:11:40.317Z,0
2022-11-11T20:12:00.300Z,0
2022-11-11T20:16:56.478Z,0
2022-11-11T20:17:16.457Z,0
2022-11-11T20:22:12.044Z,0
2022-11-11T20:22:32.009Z,0
2022-11-11T20:27:27.528Z,0
2022-11-11T20:27:47.495Z,0
2022-11-11T20:32:42.393Z,0
2022-11-11T20:33:02.375Z,0
2022-11-11T20:37:58.561Z,0
2022-11-11T20:38:18.541Z,0
2022-11-11T20:43:14.702Z,0
2022-11-11T20:43:34.681Z,0
2022-11-11T20:48:30.240Z,0
2022-11-11T20:48:50.218Z,0
2022-11-11T20:53:47.053Z,0
2022-11-11T20:54:07.017Z,0
2022-11-11T20:59:04.479Z,0
2022-11-11T20:59:24.454Z,0
2022-11-11T21:04:19.401Z,0
2022-11-11T21:04:39.337Z,0
2022-11-11T21:09:34.880Z,0
2022-11-11T21:09:54.856Z,0
2022-11-11T21:14:50.412Z,0
2022-11-11T21:15:40.169Z,0
2022-11-11T21:20:50.086Z,0
2022-11-11T21:22:00.049Z,0
2022-11-11T21:26:38.243Z,0
2022-11-11T21:27:48.221Z,0
2022-11-11T21:31:56.570Z,0
2022-11-11T21:33:56.406Z,0
2022-11-11T21:37:33.105Z,0
2022-11-11T21:39:13.105Z,0
2022-11-11T21:42:50.677Z,0
2022-11-11T21:44:28.624Z,0
2022-11-11T21:48:54.139Z,0
2022-11-11T21:49:44.149Z,0
2022-11-11T21:54:10.314Z,0
2022-11-11T21:55:00.319Z,0
2022-11-11T21:59:25.180Z,0
2022-11-11T22:00:15.179Z,0
2022-11-11T22:04:40.061Z,0
2022-11-11T22:05:30.054Z,0
2022-11-11T22:09:56.278Z,0
2022-11-11T22:10:46.278Z,0
2022-11-11T22:15:10.463Z,0
2022-11-11T22:16:00.455Z,0
2022-11-11T22:20:26.028Z,0
2022-11-11T22:21:16.026Z,0
2022-11-11T22:25:42.146Z,0
2022-11-11T22:26:32.142Z,0
2022-11-11T22:30:57.013Z,0
2022-11-11T22:31:47.023Z,0
2022-11-11T22:36:13.212Z,0
2022-11-11T22:37:03.209Z,0
2022-11-11T22:41:29.977Z,0
2022-11-11T22:42:19.977Z,0
2022-11-11T22:46:44.862Z,0
2022-11-11T22:52:01.055Z,0
2022-11-11T22:57:27.835Z,0
2022-11-11T22:59:47.179Z,0
2022-11-11T23:03:31.640Z,0
2022-11-11T23:05:11.640Z,0
2022-11-11T23:08:48.248Z,0
2022-11-11T23:10:40.096Z,0
2022-11-11T23:15:49.288Z,0
2022-11-11T23:16:13.192Z,0
2022-11-11T23:21:22.063Z,0
2022-11-11T23:21:42.040Z,0
2022-11-11T23:26:43.359Z,0
2022-11-11T23:36:04.526Z,0
2022-11-11T23:36:54.523Z,0
2022-11-11T23:41:20.992Z,0
2022-11-11T23:42:31.531Z,0
2022-11-11T23:47:41.603Z,0
2022-11-11T23:57:12.122Z,0
2022-11-11T23:58:02.126Z,0
